Time;durP1;ratioP1;P1;durP2;ratioP2;P2;SDS_P1;SDS_P2;PMS_P1;PMS_P2;Temp;Humidity;BMP_temperature;BMP_pressure;BME280_temperature;BME280_humidity;BME280_pressure;Samples;Min_cycle;Max_cycle;Signal;HPM_P1;HPM_P2
2022/03/20 00:00:07;;;;;;;11.27;4.95;;;5.20;99.90;;;;;;5094753;28;20101;-88
2022/03/20 00:02:33;;;;;;;9.43;4.35;;;5.10;99.90;;;;;;5113320;28;20043;-90
2022/03/20 00:05:03;;;;;;;7.93;4.45;;;5.10;99.90;;;;;;5094710;28;20055;-88
2022/03/20 00:07:31;;;;;;;9.45;4.75;;;5.10;99.90;;;;;;5112519;28;20126;-89
2022/03/20 00:09:58;;;;;;;11.65;4.70;;;5.10;99.90;;;;;;5094756;28;20242;-89
2022/03/20 00:12:23;;;;;;;8.70;4.65;;;5.00;99.90;;;;;;5094890;28;20185;-89
2022/03/20 00:14:49;;;;;;;9.77;4.43;;;5.20;99.90;;;;;;5094433;28;20509;-89
2022/03/20 00:17:16;;;;;;;8.63;4.65;;;5.20;99.90;;;;;;5094694;28;20043;-89
2022/03/20 00:19:42;;;;;;;9.73;4.45;;;5.00;99.90;;;;;;5077785;28;20488;-88
2022/03/20 00:22:08;;;;;;;12.18;4.72;;;5.00;99.90;;;;;;5094451;28;20047;-88
2022/03/20 00:24:34;;;;;;;7.82;4.63;;;4.90;99.90;;;;;;5094488;28;20098;-88
2022/03/20 00:27:00;;;;;;;10.07;4.10;;;4.90;99.90;;;;;;5094349;28;20378;-89
2022/03/20 00:29:27;;;;;;;13.98;5.13;;;4.90;99.90;;;;;;5094606;28;20051;-89
2022/03/20 00:31:53;;;;;;;9.70;4.80;;;4.90;99.90;;;;;;5077401;28;20057;-88
2022/03/20 00:34:19;;;;;;;9.02;4.45;;;4.80;99.90;;;;;;5094158;28;20055;-88
2022/03/20 00:36:45;;;;;;;8.07;4.55;;;5.00;99.90;;;;;;5094288;28;20047;-89
2022/03/20 00:39:11;;;;;;;7.35;4.53;;;4.70;99.90;;;;;;5112913;28;20040;-89
2022/03/20 00:41:37;;;;;;;13.85;4.93;;;4.80;99.90;;;;;;5097941;28;20047;-89
2022/03/20 00:44:03;;;;;;;10.32;4.70;;;4.70;99.90;;;;;;5098174;28;20047;-88
2022/03/20 00:46:28;;;;;;;13.73;5.18;;;4.60;99.90;;;;;;5115086;28;20053;-88
2022/03/20 00:48:54;;;;;;;10.73;4.97;;;4.60;99.90;;;;;;5080975;28;20130;-88
2022/03/20 00:51:20;;;;;;;10.57;4.93;;;4.60;99.90;;;;;;5097807;28;20035;-88
2022/03/20 00:53:46;;;;;;;10.77;4.82;;;4.60;99.90;;;;;;5097563;28;20094;-90
2022/03/20 00:56:15;;;;;;;11.07;5.47;;;4.60;99.90;;;;;;5097943;28;20115;-88
2022/03/20 00:58:40;;;;;;;11.38;5.20;;;4.60;99.90;;;;;;5097576;28;20086;-88
2022/03/20 01:01:10;;;;;;;10.10;5.50;;;4.60;99.90;;;;;;5097689;28;20083;-88
2022/03/20 01:03:39;;;;;;;11.45;5.30;;;4.50;99.90;;;;;;5115958;28;20401;-89
2022/03/20 01:06:06;;;;;;;10.15;5.35;;;4.50;99.90;;;;;;5097691;28;20050;-88
2022/03/20 01:08:32;;;;;;;11.75;5.85;;;4.50;99.90;;;;;;5097523;28;20081;-89
2022/03/20 01:10:58;;;;;;;9.45;5.60;;;4.50;99.90;;;;;;5097764;28;20083;-88
2022/03/20 01:13:23;;;;;;;10.73;6.03;;;4.50;99.90;;;;;;5097463;28;20127;-89
2022/03/20 01:15:49;;;;;;;11.35;5.65;;;4.50;99.90;;;;;;5097047;28;20043;-89
2022/03/20 01:18:15;;;;;;;10.85;6.30;;;4.50;99.90;;;;;;5097458;28;20044;-89
2022/03/20 01:20:41;;;;;;;14.65;6.25;;;4.50;99.90;;;;;;5080615;28;20108;-88
2022/03/20 01:23:06;;;;;;;10.65;5.97;;;4.50;99.90;;;;;;5096990;28;20048;-88
2022/03/20 01:25:32;;;;;;;12.52;6.22;;;4.40;99.90;;;;;;5114254;28;20552;-89
2022/03/20 01:27:58;;;;;;;13.82;7.15;;;4.40;99.90;;;;;;5097337;28;20054;-89
2022/03/20 01:30:23;;;;;;;12.98;7.45;;;4.40;99.90;;;;;;5080063;28;20051;-89
2022/03/20 01:32:49;;;;;;;12.93;6.80;;;4.40;99.90;;;;;;5115163;28;20085;-88
2022/03/20 01:35:15;;;;;;;15.05;7.82;;;4.40;99.90;;;;;;5097078;28;20046;-88
2022/03/20 01:37:43;;;;;;;13.30;7.43;;;4.30;99.90;;;;;;5096536;28;20465;-88
2022/03/20 01:40:09;;;;;;;14.15;7.50;;;4.30;99.90;;;;;;5096834;28;20044;-89
2022/03/20 01:42:38;;;;;;;14.07;7.90;;;4.50;99.90;;;;;;5096935;28;20048;-89
2022/03/20 01:45:19;;;;;;;15.88;8.25;;;4.30;99.90;;;;;;5097059;28;20051;-89
2022/03/20 01:47:47;;;;;;;20.35;9.05;;;4.20;99.90;;;;;;5096925;28;20051;-90
2022/03/20 01:50:24;;;;;;;20.50;8.00;;;4.20;99.90;;;;;;5096503;28;20043;-88
2022/03/20 01:52:51;;;;;;;14.75;8.13;;;4.10;99.90;;;;;;5096703;28;20047;-89
2022/03/20 01:55:19;;;;;;;16.10;8.40;;;4.10;99.90;;;;;;5096411;28;20445;-88
2022/03/20 01:57:45;;;;;;;15.18;8.02;;;4.00;99.90;;;;;;5096846;28;20039;-89
2022/03/20 02:00:15;;;;;;;13.00;7.90;;;4.00;99.90;;;;;;5096863;28;20109;-89
2022/03/20 02:02:40;;;;;;;19.20;9.05;;;4.00;99.90;;;;;;5079278;28;20051;-89
2022/03/20 02:05:09;;;;;;;15.38;8.57;;;4.00;99.90;;;;;;5113259;28;20048;-88
2022/03/20 02:07:35;;;;;;;16.55;8.57;;;3.90;99.90;;;;;;5096742;28;20122;-88
2022/03/20 02:10:03;;;;;;;16.38;8.25;;;3.90;99.90;;;;;;5079744;28;20050;-89
2022/03/20 02:12:29;;;;;;;20.27;9.18;;;3.90;99.90;;;;;;5096478;28;20070;-88
2022/03/20 02:15:01;;;;;;;12.90;8.32;;;3.80;99.90;;;;;;5096083;28;20039;-88
2022/03/20 02:17:28;;;;;;;14.65;8.93;;;3.70;99.90;;;;;;5096294;28;20047;-88
2022/03/20 02:19:58;;;;;;;13.60;8.05;;;3.60;99.90;;;;;;5113962;28;20043;-88
2022/03/20 02:22:25;;;;;;;14.38;8.60;;;3.60;99.90;;;;;;5114246;28;20055;-88
2022/03/20 02:24:51;;;;;;;14.68;7.90;;;3.50;99.90;;;;;;5078823;28;20433;-88
2022/03/20 02:27:23;;;;;;;16.77;8.13;;;3.40;99.90;;;;;;5096157;28;20377;-88
2022/03/20 02:29:52;;;;;;;14.75;7.72;;;3.30;99.90;;;;;;5095682;28;20064;-88
2022/03/20 02:32:20;;;;;;;15.57;7.90;;;3.30;99.90;;;;;;5079091;28;20054;-89
2022/03/20 02:34:49;;;;;;;14.35;7.72;;;3.20;99.90;;;;;;5078819;28;20047;-89
2022/03/20 02:37:17;;;;;;;14.27;8.38;;;3.20;99.90;;;;;;5096049;28;20050;-88
2022/03/20 02:39:43;;;;;;;15.32;8.02;;;3.20;99.90;;;;;;5095968;28;20036;-88
2022/03/20 02:42:09;;;;;;;13.18;8.00;;;3.20;99.90;;;;;;5095940;28;20055;-88
2022/03/20 02:45:00;;;;;;;16.63;7.93;;;3.10;99.90;;;;;;5078243;28;20052;-88
2022/03/20 02:47:29;;;;;;;13.95;8.02;;;3.20;99.90;;;;;;5112528;28;20109;-89
2022/03/20 02:50:11;;;;;;;17.33;7.50;;;3.10;99.90;;;;;;5095871;28;20401;-89
2022/03/20 02:52:53;;;;;;;16.30;8.02;;;3.10;99.90;;;;;;5095615;28;20088;-88
2022/03/20 02:55:29;;;;;;;16.27;8.27;;;3.10;99.90;;;;;;5095124;28;20428;-88
2022/03/20 02:57:56;;;;;;;14.13;7.93;;;3.10;99.90;;;;;;5113411;28;20096;-88
2022/03/20 03:00:26;;;;;;;16.60;8.95;;;3.10;99.90;;;;;;5095312;28;20051;-88
2022/03/20 03:02:54;;;;;;;13.52;8.02;;;3.10;99.90;;;;;;5094820;28;20127;-88
2022/03/20 03:05:22;;;;;;;18.35;8.52;;;3.10;99.90;;;;;;5095379;28;20047;-88
2022/03/20 03:13:21;;;;;;;16.73;8.52;;;3.00;99.90;;;;;;5095043;28;20633;-88
2022/03/20 03:15:47;;;;;;;17.58;8.77;;;3.00;99.90;;;;;;5078020;28;20047;-88
2022/03/20 03:18:13;;;;;;;20.00;9.13;;;3.00;99.90;;;;;;5095277;28;20405;-88
2022/03/20 03:20:38;;;;;;;16.10;9.20;;;3.00;99.90;;;;;;5094594;28;20127;-89
2022/03/20 03:23:05;;;;;;;17.20;8.82;;;3.00;99.90;;;;;;5095074;28;20422;-88
2022/03/20 03:25:36;;;;;;;16.63;9.00;;;3.00;99.90;;;;;;5095082;28;20130;-88
2022/03/20 03:28:02;;;;;;;15.05;8.95;;;2.90;99.90;;;;;;5078045;28;20047;-88
2022/03/20 03:30:28;;;;;;;15.30;9.45;;;2.90;99.90;;;;;;5095014;28;20066;-88
2022/03/20 03:32:55;;;;;;;19.17;8.73;;;2.80;99.90;;;;;;5095122;28;20165;-88
2022/03/20 03:38:05;;;;;;;21.42;9.60;;;2.90;99.90;;;;;;5095191;28;20363;-88
2022/03/20 03:40:31;;;;;;;16.50;9.73;;;2.80;99.90;;;;;;5112750;28;20427;-89
2022/03/20 03:42:58;;;;;;;22.23;9.55;;;2.80;99.90;;;;;;5094651;28;20047;-88
2022/03/20 03:45:25;;;;;;;18.17;9.35;;;2.80;99.90;;;;;;5112702;28;20056;-88
2022/03/20 03:47:53;;;;;;;14.57;9.23;;;2.70;99.90;;;;;;5094799;28;20052;-89
2022/03/20 03:50:19;;;;;;;20.58;9.73;;;2.70;99.90;;;;;;5094623;28;20047;-88
2022/03/20 03:52:46;;;;;;;21.27;10.07;;;2.70;99.90;;;;;;5078270;28;20400;-89
2022/03/20 03:55:11;;;;;;;15.32;9.43;;;2.70;99.90;;;;;;5094628;28;20043;-88
2022/03/20 03:57:47;;;;;;;17.27;10.40;;;2.70;99.90;;;;;;5094567;28;20055;-89
2022/03/20 04:00:14;;;;;;;18.27;9.63;;;2.60;99.90;;;;;;5112652;28;20053;-88
2022/03/20 04:02:40;;;;;;;16.83;9.73;;;2.60;99.90;;;;;;5094513;28;20573;-88
2022/03/20 04:05:06;;;;;;;17.85;9.82;;;2.60;99.90;;;;;;5077659;28;20087;-89
2022/03/20 04:07:34;;;;;;;16.40;10.45;;;2.60;99.90;;;;;;5113012;28;20069;-88
2022/03/20 04:10:05;;;;;;;21.25;10.32;;;2.60;99.90;;;;;;5094461;28;20126;-88
2022/03/20 04:12:31;;;;;;;;;;;2.60;99.90;;;;;;5095204;28;20135;-89
2022/03/20 04:15:02;;;;;;;16.25;10.05;;;2.50;99.90;;;;;;5098076;28;19924;-89
2022/03/20 04:17:29;;;;;;;22.45;10.73;;;2.50;99.90;;;;;;5081499;28;20401;-90
2022/03/20 04:19:54;;;;;;;20.13;10.02;;;2.50;99.90;;;;;;5098830;28;20036;-88
2022/03/20 04:22:20;;;;;;;17.95;9.88;;;2.40;99.90;;;;;;5098699;28;20108;-89
2022/03/20 04:24:46;;;;;;;18.80;10.65;;;2.40;99.90;;;;;;5116683;28;20501;-89
2022/03/20 04:27:13;;;;;;;20.55;11.07;;;2.40;99.90;;;;;;5081233;28;20075;-88
2022/03/20 04:29:39;;;;;;;20.45;11.20;;;2.40;99.90;;;;;;5098505;28;20062;-88
2022/03/20 04:32:06;;;;;;;20.63;11.63;;;2.50;99.90;;;;;;5098332;28;20138;-89
2022/03/20 04:34:31;;;;;;;19.73;11.18;;;2.50;99.90;;;;;;5098201;28;20100;-89
2022/03/20 04:36:57;;;;;;;23.05;11.77;;;2.70;99.90;;;;;;5081468;28;20378;-88
2022/03/20 04:39:24;;;;;;;21.25;11.30;;;2.40;99.90;;;;;;5081401;28;20382;-89
2022/03/20 04:41:50;;;;;;;20.55;10.93;;;2.40;99.90;;;;;;5081245;28;20047;-89
2022/03/20 04:44:16;;;;;;;22.92;11.45;;;2.40;99.90;;;;;;5098114;28;20118;-90
2022/03/20 04:46:42;;;;;;;20.40;11.48;;;2.30;99.90;;;;;;5098195;28;20092;-88
2022/03/20 04:58:29;;;;;;;22.90;11.43;;;2.30;99.90;;;;;;5098144;28;20052;-88
2022/03/20 05:00:21;;;;;;;18.88;11.25;;;2.30;99.90;;;;;;5097850;28;20055;-89
2022/03/20 05:02:48;;;;;;;23.02;11.90;;;2.20;99.90;;;;;;5097946;28;20043;-88
2022/03/20 05:05:14;;;;;;;21.20;12.25;;;2.30;99.90;;;;;;5097515;28;20048;-89
2022/03/20 05:07:40;;;;;;;24.83;11.85;;;2.20;99.90;;;;;;5097667;28;20055;-89
2022/03/20 05:15:39;;;;;;;22.42;11.73;;;2.20;99.90;;;;;;5097563;28;20047;-89
2022/03/20 05:18:08;;;;;;;21.23;12.07;;;2.20;99.90;;;;;;5097677;28;20382;-88
2022/03/20 05:20:34;;;;;;;22.67;13.30;;;2.10;99.90;;;;;;5096938;28;20090;-88
2022/03/20 05:23:00;;;;;;;22.35;12.88;;;2.20;99.90;;;;;;5115669;28;20059;-89
2022/03/20 05:25:30;;;;;;;21.33;12.70;;;2.10;99.90;;;;;;5096516;28;20396;-89
2022/03/20 05:27:57;;;;;;;20.27;12.40;;;2.10;99.90;;;;;;5096894;28;20469;-88
2022/03/20 05:30:23;;;;;;;22.02;12.02;;;2.10;99.90;;;;;;5079895;28;20105;-89
2022/03/20 05:32:49;;;;;;;21.70;12.05;;;2.10;99.90;;;;;;5079797;28;20056;-88
2022/03/20 05:35:18;;;;;;;22.15;12.63;;;2.00;99.90;;;;;;5096675;28;20401;-89
2022/03/20 05:37:44;;;;;;;20.60;12.80;;;2.10;99.90;;;;;;5097187;28;20378;-89
2022/03/20 05:40:11;;;;;;;23.42;13.05;;;2.00;99.90;;;;;;5097130;28;20061;-88
2022/03/20 05:42:37;;;;;;;23.85;13.20;;;2.00;99.90;;;;;;5096916;28;20052;-89
2022/03/20 05:45:06;;;;;;;20.65;12.45;;;2.10;99.90;;;;;;5096761;28;20503;-90
2022/03/20 05:47:32;;;;;;;23.52;12.98;;;2.00;99.90;;;;;;5097008;28;20055;-88
2022/03/20 05:50:00;;;;;;;22.38;13.90;;;2.00;99.90;;;;;;5079863;28;20079;-88
2022/03/20 05:52:27;;;;;;;25.33;13.30;;;2.00;99.90;;;;;;5097031;28;20900;-89
2022/03/20 05:54:52;;;;;;;21.33;13.20;;;2.00;99.90;;;;;;5096487;28;20039;-89
2022/03/20 06:00:06;;;;;;;21.05;12.38;;;2.00;99.90;;;;;;5096687;28;20043;-89
2022/03/20 06:02:32;;;;;;;23.50;13.98;;;2.00;99.90;;;;;;5114284;28;20058;-89
2022/03/20 06:04:57;;;;;;;24.33;13.25;;;2.00;99.90;;;;;;5096485;28;20043;-89
2022/03/20 06:07:23;;;;;;;21.25;12.77;;;2.10;99.90;;;;;;5096505;28;20101;-89
2022/03/20 06:09:48;;;;;;;19.67;13.32;;;2.10;99.90;;;;;;5079801;28;20047;-89
2022/03/20 06:12:14;;;;;;;25.85;13.43;;;2.20;99.90;;;;;;5079533;28;20104;-89
2022/03/20 06:14:40;;;;;;;25.13;14.02;;;2.20;99.90;;;;;;5096449;28;20442;-89
2022/03/20 06:17:06;;;;;;;21.92;13.63;;;2.20;99.90;;;;;;5096205;28;20510;-90
2022/03/20 06:19:32;;;;;;;23.80;13.82;;;2.20;99.90;;;;;;5079651;28;20398;-89
2022/03/20 06:21:57;;;;;;;23.23;13.93;;;2.30;99.90;;;;;;5078742;28;20142;-89
2022/03/20 06:24:23;;;;;;;23.42;13.70;;;2.30;99.90;;;;;;5114284;28;20035;-89
2022/03/20 06:26:49;;;;;;;21.88;13.23;;;2.40;99.90;;;;;;5095908;28;20070;-89
2022/03/20 06:29:15;;;;;;;23.27;13.10;;;2.40;99.90;;;;;;5095910;28;20493;-90
2022/03/20 06:31:41;;;;;;;20.80;13.30;;;2.40;99.90;;;;;;5095914;28;20055;-88
2022/03/20 06:34:07;;;;;;;23.80;14.05;;;2.50;99.90;;;;;;5095722;28;20050;-89
2022/03/20 06:36:33;;;;;;;23.08;13.27;;;2.50;99.90;;;;;;5096362;28;20048;-89
2022/03/20 06:38:59;;;;;;;25.27;13.77;;;2.60;99.90;;;;;;5095633;28;20078;-90
2022/03/20 06:41:24;;;;;;;22.15;13.77;;;2.60;99.90;;;;;;5079072;28;20470;-89
2022/03/20 06:43:50;;;;;;;26.02;13.77;;;2.70;99.90;;;;;;5078541;28;20055;-89
2022/03/20 06:46:16;;;;;;;24.90;14.32;;;2.70;99.90;;;;;;5077990;28;20061;-89
2022/03/20 06:48:42;;;;;;;24.90;14.10;;;2.80;99.90;;;;;;5095724;28;20044;-90
2022/03/20 06:51:07;;;;;;;21.58;14.02;;;2.90;99.90;;;;;;5114094;28;20047;-90
2022/03/20 06:53:33;;;;;;;24.58;13.70;;;2.90;99.90;;;;;;5095808;28;20135;-89
2022/03/20 06:56:00;;;;;;;22.58;13.20;;;3.00;99.90;;;;;;5095559;28;20047;-89
2022/03/20 06:58:27;;;;;;;22.15;13.43;;;3.00;99.90;;;;;;5095651;28;20067;-90
2022/03/20 07:00:53;;;;;;;22.45;14.13;;;3.00;99.90;;;;;;5077002;28;20078;-89
2022/03/20 07:03:20;;;;;;;24.80;14.05;;;3.00;99.90;;;;;;5083551;28;20130;-89
2022/03/20 07:05:47;;;;;;;23.60;14.63;;;3.10;99.90;;;;;;5095618;28;20386;-89
2022/03/20 07:08:13;;;;;;;21.45;12.85;;;3.10;99.90;;;;;;5078140;28;20569;-88
2022/03/20 07:10:39;;;;;;;24.63;14.73;;;3.20;99.90;;;;;;5095594;28;20067;-89
2022/03/20 07:15:56;;;;;;;24.10;14.30;;;3.30;99.90;;;;;;5094732;28;20417;-89
2022/03/20 07:18:22;;;;;;;23.45;14.77;;;3.40;99.90;;;;;;5078243;28;20069;-89
2022/03/20 07:20:49;;;;;;;23.10;14.00;;;3.50;99.90;;;;;;5078045;28;20067;-89
2022/03/20 07:23:15;;;;;;;22.50;13.73;;;3.50;99.90;;;;;;5078317;28;20485;-90
2022/03/20 07:31:12;;;;;;;22.02;13.43;;;3.60;99.90;;;;;;5095341;28;20051;-89
2022/03/20 07:33:41;;;;;;;27.60;15.18;;;3.60;99.90;;;;;;5095077;28;20059;-90
2022/03/20 07:36:07;;;;;;;25.38;14.68;;;3.70;99.90;;;;;;5094916;28;20047;-89
2022/03/20 07:38:35;;;;;;;25.05;14.00;;;3.80;99.90;;;;;;5078331;28;20051;-90
2022/03/20 07:41:01;;;;;;;23.00;13.32;;;3.80;99.90;;;;;;5094999;28;20577;-89
2022/03/20 07:43:26;;;;;;;26.33;15.02;;;3.90;99.90;;;;;;5094521;28;20424;-88
2022/03/20 07:45:52;;;;;;;26.40;15.05;;;4.00;99.90;;;;;;5094943;28;20059;-89
2022/03/20 07:48:21;;;;;;;26.17;15.82;;;4.00;99.90;;;;;;5094705;28;20120;-88
2022/03/20 07:50:48;;;;;;;26.77;15.30;;;4.00;99.90;;;;;;5076728;28;20575;-89
2022/03/20 07:53:16;;;;;;;25.70;15.20;;;4.10;99.90;;;;;;5094678;28;20447;-88
2022/03/20 07:55:42;;;;;;;26.45;14.32;;;4.20;99.90;;;;;;5094446;28;20055;-90
2022/03/20 07:58:07;;;;;;;24.58;15.02;;;4.50;99.90;;;;;;5094892;28;20418;-89
2022/03/20 08:00:33;;;;;;;23.33;15.15;;;4.30;99.90;;;;;;5077807;28;20062;-90
2022/03/20 08:03:00;;;;;;;25.17;14.27;;;4.40;99.90;;;;;;5094822;28;20093;-89
2022/03/20 08:05:27;;;;;;;26.88;15.63;;;4.50;99.90;;;;;;5077670;28;20505;-88
2022/03/20 08:07:52;;;;;;;36.28;14.85;;;4.70;99.90;;;;;;5094617;28;20127;-88
2022/03/20 08:10:18;;;;;;;24.63;15.15;;;4.80;99.90;;;;;;5094465;28;20130;-88
2022/03/20 08:12:44;;;;;;;24.45;14.95;;;4.90;99.90;;;;;;5112536;28;20082;-89
2022/03/20 08:15:10;;;;;;;27.33;15.32;;;5.10;99.90;;;;;;5112837;28;20047;-89
2022/03/20 08:17:43;;;;;;;28.58;16.20;;;5.20;99.90;;;;;;5094945;28;20500;-89
2022/03/20 08:20:10;;;;;;;27.13;14.85;;;5.30;99.90;;;;;;5077637;28;20047;-89
2022/03/20 08:22:37;;;;;;;25.25;15.45;;;5.40;99.90;;;;;;5111992;28;20177;-89
2022/03/20 08:25:04;;;;;;;24.55;15.35;;;5.70;99.90;;;;;;5111602;28;20055;-88
2022/03/20 08:27:29;;;;;;;27.77;15.80;;;5.70;99.90;;;;;;5111033;28;20084;-89
2022/03/20 08:29:57;;;;;;;28.00;16.00;;;5.70;99.90;;;;;;5094462;28;20629;-89
2022/03/20 08:32:24;;;;;;;26.70;16.15;;;5.90;99.90;;;;;;5112397;28;20507;-89
2022/03/20 08:34:50;;;;;;;24.30;15.52;;;6.20;99.90;;;;;;5094619;28;20044;-89
2022/03/20 08:37:16;;;;;;;29.50;15.60;;;6.00;99.90;;;;;;5111475;28;20048;-87
2022/03/20 08:39:41;;;;;;;25.95;15.70;;;6.10;99.90;;;;;;5112457;28;20051;-89
2022/03/20 08:42:07;;;;;;;30.30;16.17;;;6.20;99.90;;;;;;5112618;28;20048;-89
2022/03/20 08:44:33;;;;;;;26.13;15.98;;;6.30;99.90;;;;;;5114927;28;20067;-89
2022/03/20 08:47:00;;;;;;;27.67;16.85;;;6.50;99.90;;;;;;5114565;28;20096;-90
2022/03/20 08:49:25;;;;;;;26.38;15.25;;;6.60;99.90;;;;;;5098105;28;20051;-88
2022/03/20 08:51:51;;;;;;;24.45;16.85;;;6.60;98.40;;;;;;5097995;28;20039;-90
2022/03/20 08:54:19;;;;;;;24.33;14.25;;;6.70;98.50;;;;;;5097571;28;20133;-91
2022/03/20 08:56:45;;;;;;;25.50;15.45;;;6.90;98.10;;;;;;5097203;28;20051;-89
2022/03/20 08:59:11;;;;;;;29.10;16.52;;;7.00;96.60;;;;;;5097606;27;20069;-88
2022/03/20 09:01:39;;;;;;;28.58;16.85;;;7.10;96.30;;;;;;5117226;27;20047;-89
2022/03/20 09:04:04;;;;;;;25.50;16.38;;;7.30;95.40;;;;;;5118272;27;20196;-88
2022/03/20 09:06:30;;;;;;;26.00;15.98;;;7.90;92.80;;;;;;5136415;27;20143;-88
2022/03/20 09:08:56;;;;;;;27.38;16.10;;;8.80;86.20;;;;;;5101222;27;20111;-91
2022/03/20 09:11:22;;;;;;;32.53;16.13;;;9.80;74.10;;;;;;5100866;27;20500;-89
2022/03/20 09:13:48;;;;;;;28.33;17.60;;;10.50;68.60;;;;;;5117930;27;20046;-89
2022/03/20 09:18:59;;;;;;;26.55;16.58;;;11.80;64.10;;;;;;5105641;27;20500;-91
2022/03/20 09:21:26;;;;;;;28.02;17.45;;;12.20;59.90;;;;;;5100970;27;20043;-92
2022/03/20 09:23:51;;;;;;;26.13;16.83;;;12.80;59.00;;;;;;5100978;27;20043;-90
2022/03/20 09:26:18;;;;;;;26.60;17.73;;;12.90;57.30;;;;;;5117525;27;20046;-90
2022/03/20 09:28:45;;;;;;;28.83;17.92;;;13.20;56.70;;;;;;5117982;27;20114;-90
2022/03/20 09:31:11;;;;;;;26.17;17.40;;;13.40;55.10;;;;;;5100905;27;20055;-91
2022/03/20 09:33:37;;;;;;;27.85;18.02;;;13.70;53.70;;;;;;5101031;27;20055;-91
2022/03/20 09:36:03;;;;;;;24.77;17.10;;;13.80;52.90;;;;;;5117575;27;20050;-88
2022/03/20 09:38:29;;;;;;;27.60;17.90;;;13.90;51.40;;;;;;5100692;27;20412;-90
2022/03/20 09:40:59;;;;;;;23.77;16.83;;;14.00;51.80;;;;;;5117384;27;20047;-89
2022/03/20 09:43:25;;;;;;;26.70;17.17;;;14.40;50.60;;;;;;5117167;27;20067;-90
2022/03/20 09:45:53;;;;;;;25.13;17.13;;;14.80;49.90;;;;;;5117308;27;20395;-88
2022/03/20 09:48:19;;;;;;;25.95;17.55;;;15.20;49.00;;;;;;5100484;27;20061;-90
2022/03/20 09:50:47;;;;;;;27.38;17.58;;;15.30;48.20;;;;;;5104856;28;20039;-89
2022/03/20 09:53:13;;;;;;;27.35;17.70;;;15.50;47.70;;;;;;5096775;28;20553;-88
2022/03/20 09:55:38;;;;;;;24.80;17.23;;;15.70;47.50;;;;;;5079425;28;20039;-91
2022/03/20 09:58:04;;;;;;;25.45;18.30;;;16.10;46.80;;;;;;5079780;28;20468;-89
2022/03/20 10:00:30;;;;;;;26.42;18.00;;;16.30;46.20;;;;;;5096875;28;20043;-89
2022/03/20 10:02:56;;;;;;;23.70;17.25;;;16.40;45.70;;;;;;5080032;28;20048;-89
2022/03/20 10:05:25;;;;;;;28.40;18.80;;;16.60;45.00;;;;;;5096751;28;20502;-92
2022/03/20 10:07:51;;;;;;;28.98;17.52;;;16.50;44.40;;;;;;5096667;28;20055;-89
2022/03/20 10:10:22;;;;;;;27.67;17.60;;;16.50;44.20;;;;;;5096470;28;20055;-91
2022/03/20 10:12:53;;;;;;;29.33;18.95;;;16.40;44.40;;;;;;5079175;28;20134;-89
2022/03/20 10:15:36;;;;;;;;;;;16.60;44.10;;;;;;5096885;28;20043;-90
2022/03/20 10:18:17;;;;;;;29.05;18.33;;;16.80;42.50;;;;;;5096689;28;20285;-90
2022/03/20 10:20:50;;;;;;;27.52;18.73;;;16.90;43.20;;;;;;5079683;28;20061;-91
2022/03/20 10:23:41;;;;;;;29.60;19.35;;;16.90;43.90;;;;;;5097124;28;20481;-94
2022/03/20 10:26:16;;;;;;;139.85;25.45;;;17.20;41.50;;;;;;5097164;28;20130;-93
2022/03/20 10:28:45;;;;;;;26.42;18.95;;;17.30;42.60;;;;;;5079728;28;20051;-95
2022/03/20 10:31:23;;;;;;;28.50;18.58;;;17.50;42.90;;;;;;5079957;28;20046;-93
2022/03/20 10:34:06;;;;;;;28.92;19.35;;;17.60;42.00;;;;;;5080072;28;20058;-91
2022/03/20 10:36:36;;;;;;;26.63;19.05;;;17.80;41.80;;;;;;5080374;28;20070;-94
2022/03/20 10:39:10;;;;;;;38.15;19.33;;;17.90;41.80;;;;;;5080333;28;20047;-91
2022/03/20 10:41:38;;;;;;;30.50;19.15;;;18.30;40.80;;;;;;5096611;28;20082;-90
2022/03/20 10:44:15;;;;;;;26.35;18.80;;;18.50;40.80;;;;;;5094528;28;20060;-94
2022/03/20 10:46:42;;;;;;;28.23;19.50;;;18.60;40.30;;;;;;5080363;28;20051;-95
2022/03/20 10:49:11;;;;;;;26.42;19.30;;;18.40;40.00;;;;;;5080643;28;20224;-93
2022/03/20 10:51:41;;;;;;;27.95;19.63;;;18.40;39.70;;;;;;5097176;28;20462;-91
2022/03/20 10:54:14;;;;;;;28.42;20.02;;;18.30;39.80;;;;;;5079632;28;20112;-91
2022/03/20 10:56:56;;;;;;;31.20;19.02;;;18.30;39.90;;;;;;5079755;28;20039;-92
2022/03/20 10:59:22;;;;;;;28.15;19.65;;;18.40;39.70;;;;;;5079606;28;20054;-93
2022/03/20 11:01:48;;;;;;;28.08;19.88;;;18.50;39.70;;;;;;5079629;28;20047;-93
2022/03/20 11:04:15;;;;;;;28.65;19.25;;;18.50;40.30;;;;;;5096069;28;20047;-92
2022/03/20 11:06:46;;;;;;;29.05;19.27;;;18.50;39.80;;;;;;5096656;28;20036;-91
2022/03/20 11:09:12;;;;;;;28.05;19.20;;;18.70;39.10;;;;;;5096557;28;20427;-94
2022/03/20 11:11:47;;;;;;;29.77;19.50;;;18.60;38.90;;;;;;5097641;28;20126;-94
2022/03/20 11:14:19;;;;;;;30.65;20.35;;;18.50;38.90;;;;;;5097702;28;20396;-94
2022/03/20 11:16:51;;;;;;;25.95;18.90;;;18.40;39.00;;;;;;5082396;28;20044;-95
2022/03/20 11:19:25;;;;;;;31.33;18.88;;;18.20;38.70;;;;;;5080964;28;20160;-95
2022/03/20 11:21:54;;;;;;;28.08;19.52;;;18.00;39.20;;;;;;5079156;28;20126;-91
2022/03/20 11:24:20;;;;;;;27.83;20.15;;;18.00;39.50;;;;;;5078152;28;20060;-91
2022/03/20 11:26:50;;;;;;;40.00;20.08;;;18.20;39.60;;;;;;5095532;27;20085;-92
2022/03/20 11:29:18;;;;;;;44.15;20.80;;;18.40;39.60;;;;;;5079201;28;20054;-92
2022/03/20 11:31:44;;;;;;;28.77;20.73;;;18.40;39.80;;;;;;5095710;28;20051;-92
2022/03/20 11:34:11;;;;;;;28.60;19.73;;;18.40;39.10;;;;;;5095915;28;20039;-93
2022/03/20 11:37:05;;;;;;;29.35;20.27;;;18.60;39.10;;;;;;5096473;28;20104;-93
2022/03/20 11:39:31;;;;;;;29.65;20.42;;;18.40;38.40;;;;;;5079811;28;20106;-95
2022/03/20 11:42:20;;;;;;;27.73;21.00;;;18.30;38.80;;;;;;5080671;28;20047;-96
2022/03/20 11:45:04;;;;;;;29.38;20.70;;;18.30;37.80;;;;;;5096413;28;20104;-92
2022/03/20 11:47:35;;;;;;;29.80;21.00;;;18.20;38.90;;;;;;5080015;28;20130;-95
2022/03/20 11:50:17;;;;;;;25.23;19.67;;;18.20;39.20;;;;;;5083854;28;20054;-94
2022/03/20 11:53:06;;;;;;;27.55;19.23;;;18.20;39.90;;;;;;5099247;28;20046;-94
2022/03/20 11:55:42;;;;;;;27.92;20.67;;;18.40;38.70;;;;;;5084702;28;20055;-95
2022/03/20 11:58:17;;;;;;;30.33;20.55;;;18.50;39.20;;;;;;5079791;28;20503;-96
2022/03/20 12:00:44;;;;;;;26.17;20.67;;;18.20;38.60;;;;;;5078986;28;20051;-96
2022/03/20 12:03:26;;;;;;;25.83;19.30;;;18.20;38.90;;;;;;5096283;28;20044;-95
2022/03/20 12:06:04;;;;;;;25.92;19.50;;;17.90;38.60;;;;;;5079160;28;20084;-93
2022/03/20 12:09:07;;;;;;;29.23;20.08;;;17.50;39.50;;;;;;5079535;28;20062;-96
2022/03/20 12:11:51;;;;;;;28.83;21.23;;;17.30;39.80;;;;;;5080492;28;20046;-94
2022/03/20 12:14:26;;;;;;;32.38;21.05;;;17.30;40.30;;;;;;5079026;28;20467;-95
2022/03/20 12:16:54;;;;;;;25.48;19.10;;;17.40;39.80;;;;;;5103282;28;20044;-94
2022/03/20 12:19:35;;;;;;;28.27;20.35;;;17.70;40.20;;;;;;5088248;28;20044;-93
2022/03/20 12:22:06;;;;;;;27.60;19.27;;;18.00;39.40;;;;;;5087031;28;20044;-92
2022/03/20 12:24:37;;;;;;;26.77;19.92;;;17.70;39.50;;;;;;5087576;28;20048;-92
2022/03/20 12:27:19;;;;;;;28.33;21.08;;;17.00;40.10;;;;;;5086613;28;20047;-93
2022/03/20 12:29:45;;;;;;;28.65;21.30;;;16.30;40.50;;;;;;5085467;28;20048;-92
2022/03/20 12:32:12;;;;;;;27.15;20.25;;;15.80;41.80;;;;;;5087106;28;20043;-92
2022/03/20 12:35:06;;;;;;;30.83;21.23;;;15.50;42.50;;;;;;5087431;28;20054;-92
2022/03/20 12:37:39;;;;;;;30.30;20.95;;;15.60;42.70;;;;;;5087659;28;20135;-89
2022/03/20 12:40:19;;;;;;;27.65;20.83;;;15.70;42.70;;;;;;5088841;28;20043;-89
2022/03/20 12:43:03;;;;;;;31.45;21.33;;;15.70;42.30;;;;;;5090996;28;20056;-89
2022/03/20 12:45:30;;;;;;;28.33;21.23;;;15.50;42.50;;;;;;5107149;28;20050;-89
2022/03/20 12:47:59;;;;;;;37.53;21.83;;;15.10;43.40;;;;;;5106564;28;20040;-91
2022/03/20 12:50:31;;;;;;;33.25;20.80;;;14.70;44.10;;;;;;5106993;28;20104;-93
2022/03/20 12:53:17;;;;;;;32.78;21.92;;;14.40;44.70;;;;;;5113221;28;20078;-95
2022/03/20 12:56:09;;;;;;;31.35;20.92;;;14.00;45.20;;;;;;5088355;28;20089;-93
2022/03/20 12:58:35;;;;;;;31.08;21.75;;;13.60;46.10;;;;;;5111383;28;20197;-94
2022/03/20 13:01:08;;;;;;;33.40;22.55;;;13.20;46.60;;;;;;5111271;28;20043;-96
2022/03/20 13:03:34;;;;;;;31.98;21.65;;;13.00;47.40;;;;;;5109967;28;20042;-96
2022/03/20 13:06:03;;;;;;;33.40;21.27;;;12.70;48.00;;;;;;5111877;28;20454;-96
2022/03/20 13:08:37;;;;;;;32.50;21.67;;;12.50;48.40;;;;;;5094728;28;20063;-93
2022/03/20 13:14:08;;;;;;;32.22;22.45;;;12.10;49.80;;;;;;5018096;28;20482;-93
2022/03/20 13:16:35;;;;;;;34.90;22.20;;;12.10;49.80;;;;;;5001117;28;20065;-93
2022/03/20 13:19:01;;;;;;;35.30;22.02;;;11.80;50.20;;;;;;5033892;28;20064;-95
2022/03/20 13:21:26;;;;;;;34.50;22.15;;;12.00;50.90;;;;;;5001106;28;20136;-95
2022/03/20 13:23:52;;;;;;;31.00;21.45;;;12.20;50.80;;;;;;5017652;28;20517;-93